Aeroporto :
LOGIN :

Iscrizione | Disclaimer

   EN    FR    IT 

 










Sommario :    VFR   VFR Marginale   IFR   IFR Intensivo   IFR Molto Intensivo
Visibilità : 
Base nubi : 
>= 8 km
>= 3000ft
5 / 8 km
1000 / 3000 ft
1500m / 5 km
500 / 1000 ft
800 / 1500m
200 / 500 ft
< 800m
< 200 ft
Simboli :   Temporali  Nebbia  Neve Forte  Precipitazioni Forti  Vento > 20 kt
SIGMETs :   Varie  Temporali  Ghiacco  Turbolenza  Onda orograficha  Ceneri Vulcaniche






- Altitudine del aeroporto : 16 ft
- Codice IATA : LPX


EVLA - Liepaja

ULTIMO METAR :
  • 270220Z AUTO 23007KT 9999 SCT009/// SCT016/// OVC024/// 03/03 Q0986

METARs OBSOLETI :
  • 270150Z AUTO 19008KT 9999 -RA SCT006/// OVC008/// 03/02 Q0986
  • 270120Z AUTO 19009KT 9999 FEW008/// BKN010/// OVC012/// 03/02 Q0986
  • 270050Z AUTO 19010KT 9999 BKN006/// OVC019/// 03/03 Q0986
  • 270020Z AUTO 19011KT 9999 BKN007/// OVC016/// 03/02 Q0986
  • 262350Z AUTO 20014KT 9999 BKN011/// BKN014/// BKN017/// 03/02 Q0986

TAF TAF EVLA
Valido dal 27 a 00 ore il 28 a 00 ore UTC


262303Z 2700/2724 22015KT 9999 BKN020
BECMG 2700/2702 BKN005 OVC015
TEMPO 2700/2703 24018G30KT
TEMPO 2706/2711 4000 RA
BECMG 2711/2713 BKN015



MetMap, La meteo Aeronautica in un colpo d'occhio ! - Copyright ORBIFLY Dicembre 2007 - Disclaimer

ORBIFLY MET'MAP TEAM :

Programmazione e sviluppo : Alexandra Zaïnal
Concezione : Baudouin d'Aumeries
Aiuto per la programmazione : Marc-Olivier Méhu
Supporto tecnico e logistico : Manuel Goepfert
Aiuto per la traduzione : Arnaldo La Scala

Contatto : metmap@orbifly.com




FONTI E CREDITI :

   NOAA